Radstock, United Kingdom
Current Conditions -  °F | °C
As of 5:20 AM on Monday 20 Oct 2014 (Local Time) from EGGD Reporting Station
Broken Clouds Broken Clouds  
Wind Chill: 54°   Ceiling: 2100
Heat Index: 54°   Visibility: 6mi
Dew Point: 52°   Wind: 9mph
Humidity: 94%   Direction: 240°WSW
Pressure: 30"   Gusts: NA
Location:  51.29°N, 2.46°W
Report Text: EGGD 200420Z 24008KT 9999 SCT009 BKN021 12/11 Q1016
Loading
Personal Weather Stations






























Interactive Weather Map
Tropical Storm Tracking
New forecast layout! Learn more

10-Day Weather Forecast

Advertisements
Track Severe Weather on mobile